Main page
METAR-TAF:

METAR-TAF

Airports :

Ilopango International Airport

San Salvador, El Salvador

latitude: 13-42N, longitude: 089-07W, elevation: 616 m

Current weather observation

The report was made 4 hours and 0 minutes ago, at 23:50 UTC
Wind 7 kt from the South
Temperature 25°C
Humidity 83%
Pressure 1014 hPa
Visibility 10 km or more
Few clouds at a height of 2300 ft

METAR: MSSS 082350Z 19007KT 9999 FEW023 25/22 Q1014 A2995

Time: 21:50 (03:50 UTC)

Forecast

The report was made 6 hours and 25 minutes ago, at 21:25 UTC
Forecast valid from 09 at 00 UTC to 09 at 24 UTC
Wind 3 kt from variable directions
Visibility 10 km or more
Few clouds at a height of 4000 ft
From 09 at 0200 UTC
Wind 5 kt from the North
Visibility 10 km or more
no clouds below 1500 m and no cumulonimbus
From 09 at 1900 UTC
Wind 5 kt from the South/Southeast
Visibility 10 km or more
Few clouds at a height of 4300 ft

TAF: MSSS 082125Z 0900/0924 VRB03KT 9999 FEW040 TX31/0920Z TN21/0912Z FM090200 36005KT CAVOK FM091900 15005KT 9999 FEW043

Weather observations and forecasts of more than 4000 airports (METAR and TAF reports).

The available stations are represented by yellow and red dots on the map.

Hover mouse over dot to see the name of the station.

Then click to see weather observations and forecasts.

To change the map : click on the green buttons with a black cross to zoom in, on the green button with a dash to zoom out, or on the green arrows for adjacent maps.


METAR-TAF: